createdAt,value
2019-02-25T00:02:28.895Z,87.20
2019-02-25T00:04:59.818Z,87.00
2019-02-25T00:07:30.656Z,87.90
2019-02-25T00:10:01.416Z,88.80
2019-02-25T00:12:32.679Z,90.50
2019-02-25T00:15:03.571Z,89.80
2019-02-25T00:17:35.798Z,89.90
2019-02-25T00:20:06.805Z,90.50
2019-02-25T00:22:37.706Z,90.60
2019-02-25T00:25:08.877Z,90.20
2019-02-25T00:27:39.813Z,89.10
2019-02-25T00:30:10.660Z,90.00
2019-02-25T00:32:41.528Z,90.10
2019-02-25T00:35:12.255Z,89.30
2019-02-25T00:37:42.978Z,87.50
2019-02-25T00:40:13.703Z,88.10
2019-02-25T00:42:44.179Z,88.90
2019-02-25T00:45:14.833Z,88.10
2019-02-25T00:47:45.639Z,86.20
2019-02-25T00:50:16.324Z,86.70
2019-02-25T00:52:47.125Z,87.40
2019-02-25T00:55:17.761Z,85.40
2019-02-25T00:57:48.590Z,85.40
2019-02-25T01:00:19.627Z,85.00
2019-02-25T01:02:50.490Z,85.40
2019-02-25T01:05:21.335Z,85.70
2019-02-25T01:07:52.283Z,84.80
2019-02-25T01:10:23.021Z,86.60
2019-02-25T01:12:53.777Z,85.50
2019-02-25T01:15:24.457Z,87.20
2019-02-25T01:17:55.277Z,86.10
2019-02-25T01:20:26.035Z,85.90
2019-02-25T01:22:56.854Z,84.90
2019-02-25T01:25:27.602Z,85.20
2019-02-25T01:27:58.531Z,85.20
2019-02-25T01:30:29.199Z,85.00
2019-02-25T01:33:00.071Z,85.20
2019-02-25T01:35:30.727Z,86.50
2019-02-25T01:38:01.524Z,88.10
2019-02-25T01:40:32.058Z,89.00
2019-02-25T01:43:02.869Z,89.20
2019-02-25T01:45:33.644Z,89.50
2019-02-25T01:48:04.367Z,89.40
2019-02-25T01:50:35.135Z,88.80
2019-02-25T01:53:06.325Z,88.30
2019-02-25T01:55:37.010Z,88.80
2019-02-25T01:58:07.847Z,90.30
2019-02-25T02:00:38.481Z,90.20
2019-02-25T02:03:09.161Z,88.50
2019-02-25T02:05:39.927Z,87.90
2019-02-25T02:08:10.719Z,88.70
2019-02-25T02:10:41.425Z,87.20
2019-02-25T02:13:14.402Z,85.90
2019-02-25T02:15:44.613Z,86.90
2019-02-25T02:18:15.499Z,86.10
2019-02-25T02:20:46.309Z,85.80
2019-02-25T02:23:17.062Z,86.70
2019-02-25T02:25:47.854Z,86.60
2019-02-25T02:28:18.731Z,87.50
2019-02-25T02:30:49.428Z,88.20
2019-02-25T02:33:20.285Z,88.60
2019-02-25T02:35:51.070Z,88.30
2019-02-25T02:38:21.880Z,86.60
2019-02-25T02:40:52.667Z,88.00
2019-02-25T02:43:23.555Z,88.80
2019-02-25T02:46:18.066Z,90.00
2019-02-25T02:48:55.761Z,88.20
2019-02-25T02:51:26.530Z,87.90
2019-02-25T02:53:57.399Z,89.30
2019-02-25T02:56:28.184Z,89.80
2019-02-25T02:58:58.960Z,89.00
2019-02-25T03:01:29.540Z,87.00
2019-02-25T03:04:00.368Z,86.60
2019-02-25T03:06:31.228Z,86.10
2019-02-25T03:09:04.891Z,85.70
2019-02-25T03:11:37.310Z,87.70
2019-02-25T03:14:08.286Z,88.00
2019-02-25T03:16:38.964Z,87.30
2019-02-25T03:19:09.741Z,88.20
2019-02-25T03:21:40.420Z,87.50
2019-02-25T03:24:11.219Z,87.10
2019-02-25T03:26:42.088Z,86.60
2019-02-25T03:29:13.042Z,88.10
2019-02-25T03:31:43.680Z,87.80
2019-02-25T03:34:14.366Z,87.70
2019-02-25T03:36:45.152Z,87.70
2019-02-25T03:39:16.032Z,86.90
2019-02-25T03:41:46.809Z,87.20
2019-02-25T03:44:17.607Z,87.40
2019-02-25T03:46:48.272Z,87.50
2019-02-25T03:49:18.996Z,88.20
2019-02-25T03:51:49.848Z,87.90
2019-02-25T03:54:20.679Z,87.60
2019-02-25T03:56:51.530Z,87.00
2019-02-25T03:59:22.648Z,87.70
2019-02-25T04:01:53.301Z,89.10
2019-02-25T04:04:24.075Z,89.70
2019-02-25T04:06:54.743Z,88.70
2019-02-25T04:09:25.550Z,89.20
2019-02-25T04:11:56.331Z,90.00
2019-02-25T04:14:27.930Z,90.10
2019-02-25T04:16:58.737Z,89.20
2019-02-25T04:19:29.600Z,88.90
2019-02-25T04:22:00.401Z,89.20
2019-02-25T04:24:31.475Z,89.90
2019-02-25T04:27:02.080Z,89.10
2019-02-25T04:29:32.958Z,90.00
2019-02-25T04:32:03.654Z,89.10
2019-02-25T04:34:34.322Z,89.80
2019-02-25T04:37:05.196Z,90.00
2019-02-25T04:39:36.005Z,90.00
2019-02-25T04:42:06.777Z,90.40
2019-02-25T04:44:37.517Z,90.40
2019-02-25T04:47:08.216Z,90.10
2019-02-25T04:49:39.038Z,90.60
2019-02-25T04:52:09.924Z,90.30
2019-02-25T04:54:40.787Z,89.20
2019-02-25T04:57:11.673Z,89.70
2019-02-25T04:59:42.365Z,89.50
2019-02-25T05:02:13.240Z,90.00
2019-02-25T05:04:44.188Z,90.00
2019-02-25T05:07:14.890Z,89.70
2019-02-25T05:09:45.897Z,88.40
2019-02-25T05:12:16.762Z,90.20
2019-02-25T05:14:47.585Z,90.20
2019-02-25T05:17:18.383Z,90.30
2019-02-25T05:19:49.358Z,90.80
2019-02-25T05:22:20.129Z,91.00
2019-02-25T05:24:50.944Z,91.50
2019-02-25T05:27:21.682Z,91.80
2019-02-25T05:29:52.484Z,92.30
2019-02-25T05:32:23.099Z,92.20
2019-02-25T05:34:53.883Z,91.90
2019-02-25T05:37:24.549Z,92.20
2019-02-25T05:39:55.323Z,92.00
2019-02-25T05:42:25.996Z,92.60
2019-02-25T05:44:56.906Z,92.00
2019-02-25T05:47:27.658Z,91.40
2019-02-25T05:49:58.402Z,91.00
2019-02-25T05:52:29.127Z,92.20
2019-02-25T05:55:00.039Z,92.00
2019-02-25T05:57:30.774Z,91.30
2019-02-25T06:00:01.509Z,90.90
2019-02-25T06:02:32.242Z,90.90
2019-02-25T06:05:03.060Z,91.00
2019-02-25T06:07:33.965Z,91.00
2019-02-25T06:10:04.729Z,90.70
2019-02-25T06:12:35.608Z,90.40
2019-02-25T06:15:06.635Z,90.20
2019-02-25T06:17:37.293Z,90.70
2019-02-25T06:20:08.811Z,91.10
2019-02-25T06:22:39.662Z,90.30
2019-02-25T06:25:10.268Z,89.90
2019-02-25T06:27:40.953Z,89.30
2019-02-25T06:30:14.228Z,89.60
2019-02-25T06:32:44.765Z,89.50
2019-02-25T06:35:15.811Z,90.40
2019-02-25T06:37:46.523Z,89.90
2019-02-25T06:40:17.313Z,89.30
2019-02-25T06:42:47.908Z,88.90
2019-02-25T06:45:19.515Z,89.50
2019-02-25T06:47:50.273Z,89.60
2019-02-25T06:50:21.107Z,89.70
2019-02-25T06:52:51.973Z,90.00
2019-02-25T06:55:22.920Z,89.70
2019-02-25T06:57:53.720Z,89.50
2019-02-25T07:00:24.524Z,89.00
2019-02-25T07:02:55.407Z,88.80
2019-02-25T07:05:45.142Z,88.90
2019-02-25T07:08:40.655Z,88.80
2019-02-25T07:11:26.235Z,89.30
2019-02-25T07:14:03.113Z,89.40
2019-02-25T07:16:57.282Z,90.00
2019-02-25T07:19:56.086Z,89.60
2019-02-25T07:22:39.229Z,89.60
2019-02-25T07:25:22.337Z,89.30
2019-02-25T07:28:11.604Z,89.30
2019-02-25T07:31:00.353Z,88.80
2019-02-25T07:33:48.804Z,88.30
2019-02-25T07:36:37.288Z,88.20
2019-02-25T07:39:39.836Z,88.30
2019-02-25T07:42:27.049Z,87.60
2019-02-25T07:45:12.426Z,86.70
2019-02-25T07:47:57.291Z,87.20
2019-02-25T07:50:47.890Z,86.10
2019-02-25T07:53:53.234Z,85.60
2019-02-25T07:56:45.984Z,85.00
2019-02-25T07:59:35.762Z,82.40
2019-02-25T08:02:28.612Z,80.80
2019-02-25T08:05:14.298Z,79.90
2019-02-25T08:08:19.458Z,79.20
2019-02-25T08:10:57.543Z,78.50
2019-02-25T08:13:39.846Z,79.90
2019-02-25T08:16:26.526Z,78.80
2019-02-25T08:19:14.795Z,75.70
2019-02-25T08:22:13.894Z,73.10
2019-02-25T08:25:22.004Z,71.70
2019-02-25T08:28:14.344Z,70.30
2019-02-25T08:30:56.238Z,69.40
2019-02-25T08:33:42.236Z,69.60
2019-02-25T08:37:11.743Z,67.60
2019-02-25T08:40:04.284Z,66.10
2019-02-25T08:42:56.314Z,65.70
2019-02-25T08:45:51.522Z,62.90
2019-02-25T08:48:33.621Z,63.00
2019-02-25T08:51:04.175Z,61.30
2019-02-25T08:53:35.159Z,60.20
2019-02-25T08:56:06.025Z,59.60
2019-02-25T08:58:36.837Z,59.90
2019-02-25T09:01:07.555Z,59.30
2019-02-25T09:03:38.318Z,57.60
2019-02-25T09:06:09.064Z,58.30
2019-02-25T09:08:39.866Z,58.20
2019-02-25T09:11:14.122Z,57.70
2019-02-25T09:13:43.095Z,59.20
2019-02-25T09:16:14.764Z,59.00
2019-02-25T09:18:45.431Z,58.80
2019-02-25T09:21:16.136Z,58.20
2019-02-25T09:23:48.103Z,57.30
2019-02-25T09:26:18.831Z,57.70
2019-02-25T09:28:50.502Z,58.30
2019-02-25T09:31:21.327Z,57.50
2019-02-25T09:33:52.068Z,57.60
2019-02-25T09:36:22.753Z,58.00
2019-02-25T09:38:53.436Z,58.50
2019-02-25T09:41:29.834Z,57.50
2019-02-25T09:43:56.654Z,58.00
2019-02-25T09:46:27.524Z,57.50
2019-02-25T09:48:58.142Z,57.20
2019-02-25T09:51:28.919Z,56.50
2019-02-25T09:54:00.479Z,57.80
2019-02-25T09:56:31.283Z,56.30
2019-02-25T09:59:02.241Z,56.20
2019-02-25T10:01:33.052Z,56.60
2019-02-25T10:04:03.936Z,55.80
2019-02-25T10:06:34.751Z,56.10
2019-02-25T10:09:06.776Z,55.90
2019-02-25T10:11:37.640Z,54.90
2019-02-25T10:14:08.412Z,55.20
2019-02-25T10:16:39.309Z,56.40
2019-02-25T10:19:10.094Z,55.10
2019-02-25T10:21:40.991Z,55.10
2019-02-25T10:24:11.768Z,55.80
2019-02-25T10:26:42.663Z,55.80
2019-02-25T10:29:13.538Z,56.70
2019-02-25T10:31:44.312Z,56.40
2019-02-25T10:34:14.999Z,55.00
2019-02-25T10:36:46.575Z,54.20
2019-02-25T10:39:19.821Z,54.10
2019-02-25T10:41:51.551Z,54.60
2019-02-25T10:44:23.172Z,54.50
2019-02-25T10:46:53.916Z,54.50
2019-02-25T10:49:26.648Z,54.00
2019-02-25T10:51:57.125Z,53.90
2019-02-25T10:54:27.898Z,53.80
2019-02-25T10:57:01.169Z,53.30
2019-02-25T10:59:34.179Z,53.10
2019-02-25T11:02:04.674Z,53.90
2019-02-25T11:04:36.276Z,55.10
2019-02-25T11:07:09.085Z,52.90
2019-02-25T11:10:01.891Z,53.70
2019-02-25T11:12:32.893Z,54.40
2019-02-25T11:15:05.276Z,52.00
2019-02-25T11:17:36.143Z,51.60
2019-02-25T11:20:08.857Z,51.90
2019-02-25T11:22:40.471Z,51.20
2019-02-25T11:25:11.979Z,52.60
2019-02-25T11:27:42.927Z,51.60
2019-02-25T11:30:14.387Z,50.20
2019-02-25T11:32:46.079Z,52.10
2019-02-25T11:35:16.844Z,50.20
2019-02-25T11:37:49.569Z,50.50
2019-02-25T11:40:20.340Z,50.00
2019-02-25T11:42:51.140Z,50.60
2019-02-25T11:45:22.185Z,50.10
2019-02-25T11:47:53.001Z,51.60
2019-02-25T11:50:23.825Z,50.60
2019-02-25T11:52:54.684Z,51.00
2019-02-25T11:55:25.295Z,49.90
2019-02-25T11:57:56.236Z,52.70
2019-02-25T12:00:27.051Z,49.50
2019-02-25T12:02:58.013Z,52.60
2019-02-25T12:05:28.573Z,50.40
2019-02-25T12:07:59.376Z,50.70
2019-02-25T12:10:30.080Z,50.30
2019-02-25T12:13:00.835Z,49.20
2019-02-25T12:15:31.513Z,49.40
2019-02-25T12:18:02.284Z,49.30
2019-02-25T12:20:33.208Z,45.60
2019-02-25T12:23:05.054Z,45.60
2019-02-25T12:25:35.975Z,46.90
2019-02-25T12:28:06.839Z,47.00
2019-02-25T12:30:37.744Z,45.80
2019-02-25T12:33:08.704Z,44.80
2019-02-25T12:35:39.784Z,45.30
2019-02-25T12:38:12.614Z,45.30
2019-02-25T12:40:45.063Z,45.60
2019-02-25T12:43:15.941Z,47.10
2019-02-25T12:45:46.732Z,45.40
2019-02-25T12:48:17.817Z,46.40
2019-02-25T12:50:50.513Z,46.10
2019-02-25T12:53:21.456Z,45.40
2019-02-25T12:55:52.623Z,45.50
2019-02-25T12:58:23.618Z,45.10
2019-02-25T13:00:54.565Z,44.70
2019-02-25T13:03:25.502Z,45.40
2019-02-25T13:05:58.289Z,45.40
2019-02-25T13:08:29.318Z,45.00
2019-02-25T13:11:00.340Z,45.20
2019-02-25T13:13:31.190Z,46.10
2019-02-25T13:16:03.813Z,44.80
2019-02-25T13:18:34.714Z,45.30
2019-02-25T13:21:05.635Z,45.10
2019-02-25T13:23:36.476Z,46.00
2019-02-25T13:26:07.566Z,45.20
2019-02-25T13:28:38.872Z,45.90
2019-02-25T13:31:10.180Z,46.40
2019-02-25T13:33:41.491Z,46.00
2019-02-25T13:36:13.581Z,45.00
2019-02-25T13:38:44.500Z,46.30
2019-02-25T13:41:15.389Z,46.40
2019-02-25T13:43:46.377Z,45.80
2019-02-25T13:46:17.229Z,44.80
2019-02-25T13:48:48.234Z,45.20
2019-02-25T13:51:19.290Z,46.20
2019-02-25T13:53:50.299Z,45.20
2019-02-25T13:56:21.575Z,45.30
2019-02-25T13:58:52.508Z,45.10
2019-02-25T14:01:23.477Z,45.40
2019-02-25T14:03:54.672Z,45.30
2019-02-25T14:06:25.561Z,46.20
2019-02-25T14:08:56.553Z,44.30
2019-02-25T14:11:27.449Z,46.10
2019-02-25T14:13:58.416Z,44.60
2019-02-25T14:16:29.530Z,44.70
2019-02-25T14:19:00.418Z,45.10
2019-02-25T14:21:31.780Z,45.20
2019-02-25T14:24:02.938Z,46.20
2019-02-25T14:26:33.864Z,45.90
2019-02-25T14:29:06.844Z,45.60
2019-02-25T14:31:38.650Z,44.90
2019-02-25T14:34:09.628Z,45.40
2019-02-25T14:36:40.542Z,46.10
2019-02-25T14:39:27.768Z,47.00
2019-02-25T14:41:59.267Z,47.90
2019-02-25T14:44:32.369Z,48.40
2019-02-25T14:47:03.423Z,48.50
2019-02-25T14:49:35.800Z,48.50
2019-02-25T14:55:46.959Z,49.50
2019-02-25T14:58:17.621Z,48.70
2019-02-25T15:00:48.570Z,49.20
2019-02-25T15:03:20.397Z,49.20
2019-02-25T15:05:53.238Z,50.30
2019-02-25T15:08:25.788Z,49.80
2019-02-25T15:11:00.032Z,50.60
2019-02-25T15:13:30.334Z,51.50
2019-02-25T15:16:01.351Z,52.20
2019-02-25T15:18:31.959Z,52.10
2019-02-25T15:21:04.679Z,52.80
2019-02-25T15:23:36.254Z,52.60
2019-02-25T15:26:07.183Z,53.80
2019-02-25T15:28:38.127Z,53.00
2019-02-25T15:31:09.466Z,53.10
2019-02-25T15:33:42.479Z,54.20
2019-02-25T15:36:15.302Z,54.70
2019-02-25T15:38:45.870Z,54.70
2019-02-25T15:41:16.668Z,54.30
2019-02-25T15:43:47.887Z,54.20
2019-02-25T15:46:19.675Z,55.20
2019-02-25T15:48:51.442Z,54.90
2019-02-25T15:51:22.336Z,55.10
2019-02-25T15:53:54.107Z,54.60
2019-02-25T15:56:25.443Z,55.60
2019-02-25T15:58:56.134Z,56.10
2019-02-25T16:01:26.983Z,54.80
2019-02-25T16:04:02.240Z,55.70
2019-02-25T16:06:31.341Z,55.90
2019-02-25T16:09:03.812Z,56.10
2019-02-25T16:11:37.134Z,56.60
2019-02-25T16:14:09.966Z,56.10
2019-02-25T16:16:40.875Z,56.20
2019-02-25T16:19:13.540Z,56.50
2019-02-25T16:21:44.446Z,57.10
2019-02-25T16:24:16.869Z,57.50
2019-02-25T16:26:48.755Z,58.20
2019-02-25T16:29:19.736Z,58.20
2019-02-25T16:31:51.507Z,58.70
2019-02-25T16:34:23.005Z,60.30
2019-02-25T16:36:55.584Z,60.30
2019-02-25T16:39:26.446Z,62.00
2019-02-25T16:41:57.193Z,62.60
2019-02-25T16:44:27.789Z,63.50
2019-02-25T16:46:58.583Z,63.80
2019-02-25T16:49:31.233Z,63.80
2019-02-25T16:52:02.255Z,64.20
2019-02-25T16:54:33.071Z,64.90
2019-02-25T16:57:03.822Z,65.50
2019-02-25T16:59:34.586Z,65.60
2019-02-25T17:02:07.140Z,66.40
2019-02-25T17:04:37.643Z,66.50
2019-02-25T17:07:08.417Z,66.50
2019-02-25T17:09:40.689Z,67.60
2019-02-25T17:12:11.631Z,68.20
2019-02-25T17:14:42.549Z,68.60
2019-02-25T17:17:13.395Z,69.40
2019-02-25T17:19:44.176Z,70.10
2019-02-25T17:22:14.949Z,70.10
2019-02-25T17:24:45.775Z,70.40
2019-02-25T17:27:16.647Z,70.40
2019-02-25T17:29:49.089Z,70.30
2019-02-25T17:32:22.835Z,70.70
2019-02-25T17:34:53.647Z,71.20
2019-02-25T17:37:26.586Z,71.10
2019-02-25T17:39:59.123Z,71.30
2019-02-25T17:42:33.344Z,70.70
2019-02-25T17:45:02.545Z,70.80
2019-02-25T17:47:35.130Z,71.90
2019-02-25T17:50:09.057Z,71.90
2019-02-25T17:52:42.117Z,72.70
2019-02-25T17:55:14.614Z,72.00
2019-02-25T17:57:45.413Z,72.10
2019-02-25T18:00:22.663Z,71.50
2019-02-25T18:02:55.057Z,72.30
2019-02-25T18:05:26.173Z,72.10
2019-02-25T18:07:56.968Z,71.90
2019-02-25T18:10:29.437Z,72.70
2019-02-25T18:13:01.656Z,73.20
2019-02-25T18:15:32.946Z,73.90
2019-02-25T18:18:07.047Z,74.40
2019-02-25T18:20:36.668Z,74.50
2019-02-25T18:23:08.915Z,75.20
2019-02-25T18:25:40.229Z,77.00
2019-02-25T18:28:12.722Z,76.20
2019-02-25T18:30:43.816Z,77.00
2019-02-25T18:33:17.373Z,76.10
2019-02-25T18:35:48.385Z,75.60
2019-02-25T18:38:20.687Z,76.90
2019-02-25T18:40:51.678Z,76.90
2019-02-25T18:43:24.155Z,76.50
2019-02-25T18:45:56.270Z,76.40
2019-02-25T18:48:27.518Z,76.00
2019-02-25T18:50:59.611Z,77.40
2019-02-25T18:53:30.614Z,78.30
2019-02-25T18:56:01.237Z,78.50
2019-02-25T18:58:33.626Z,75.90
2019-02-25T19:01:04.679Z,77.20
2019-02-25T19:03:35.580Z,77.80
2019-02-25T19:06:07.165Z,77.50
2019-02-25T19:08:37.970Z,77.10
2019-02-25T19:11:08.598Z,77.80
2019-02-25T19:13:39.266Z,78.80
2019-02-25T19:16:10.211Z,79.40
2019-02-25T19:18:42.665Z,79.50
2019-02-25T19:21:13.166Z,78.50
2019-02-25T19:23:44.757Z,78.40
2019-02-25T19:26:17.326Z,78.00
2019-02-25T19:28:50.193Z,79.60
2019-02-25T19:31:21.315Z,78.90
2019-02-25T19:33:52.287Z,79.70
2019-02-25T19:36:25.689Z,79.20
2019-02-25T19:38:55.404Z,79.40
2019-02-25T19:41:29.737Z,78.50
2019-02-25T19:43:59.417Z,78.20
2019-02-25T19:46:31.105Z,80.80
2019-02-25T19:49:01.934Z,78.20
2019-02-25T19:51:32.730Z,80.00
2019-02-25T19:54:05.173Z,78.90
2019-02-25T19:56:36.023Z,80.70
2019-02-25T19:59:07.960Z,84.20
2019-02-25T20:01:39.441Z,84.10
2019-02-25T20:04:12.184Z,84.10
2019-02-25T20:06:44.681Z,86.80
2019-02-25T20:09:16.727Z,86.20
2019-02-25T20:11:47.469Z,87.50
2019-02-25T20:14:19.747Z,87.10
2019-02-25T20:16:50.576Z,88.20
2019-02-25T20:19:21.384Z,87.80
2019-02-25T20:21:53.058Z,87.00
2019-02-25T20:24:25.617Z,87.30
2019-02-25T20:26:58.495Z,86.40
2019-02-25T20:29:29.021Z,88.40
2019-02-25T20:31:59.712Z,86.30
2019-02-25T20:34:32.105Z,85.20
2019-02-25T20:37:03.972Z,86.50
2019-02-25T20:39:35.914Z,87.80
2019-02-25T20:42:07.460Z,87.80
2019-02-25T20:44:38.279Z,87.60
2019-02-25T20:47:09.009Z,86.90
2019-02-25T20:49:39.803Z,88.30
2019-02-25T20:52:11.759Z,87.00
2019-02-25T20:54:45.341Z,86.30
2019-02-25T20:57:16.496Z,87.60
2019-02-25T20:59:48.929Z,89.20
2019-02-25T21:02:21.167Z,88.60
2019-02-25T21:04:53.173Z,88.90
2019-02-25T21:07:25.105Z,89.10
2019-02-25T21:09:58.641Z,90.00
2019-02-25T21:12:29.330Z,87.30
2019-02-25T21:15:00.383Z,86.00
2019-02-25T21:17:33.127Z,85.40
2019-02-25T21:20:04.930Z,87.90
2019-02-25T21:22:38.450Z,90.40
2019-02-25T21:25:09.252Z,90.80
2019-02-25T21:27:41.175Z,90.60
2019-02-25T21:32:45.654Z,90.30
2019-02-25T21:35:16.841Z,90.10
2019-02-25T21:37:49.693Z,90.20
2019-02-25T21:40:22.177Z,90.00
2019-02-25T21:42:53.908Z,90.40
2019-02-25T21:45:27.532Z,91.00
2019-02-25T21:48:01.182Z,91.00
2019-02-25T21:50:32.988Z,90.30
2019-02-25T21:53:04.907Z,89.80
2019-02-25T21:55:35.760Z,90.60
2019-02-25T21:58:06.616Z,91.10
2019-02-25T22:00:40.266Z,90.90
2019-02-25T22:03:12.568Z,91.50
2019-02-25T22:05:42.635Z,91.90
2019-02-25T22:08:14.466Z,91.70
2019-02-25T22:10:45.808Z,92.30
2019-02-25T22:13:18.460Z,92.20
2019-02-25T22:15:49.285Z,92.20
2019-02-25T22:18:20.065Z,90.90
2019-02-25T22:20:51.415Z,92.00
2019-02-25T22:23:25.816Z,92.40
2019-02-25T22:25:54.848Z,90.80
2019-02-25T22:28:25.736Z,90.50
2019-02-25T22:30:56.747Z,91.30
2019-02-25T22:33:30.419Z,91.00
2019-02-25T22:36:00.994Z,91.70
2019-02-25T22:38:31.758Z,91.10
2019-02-25T22:41:02.545Z,91.60
2019-02-25T22:43:33.238Z,91.30
2019-02-25T22:46:05.538Z,90.40
2019-02-25T22:48:37.578Z,90.90
2019-02-25T22:51:09.388Z,90.80
2019-02-25T22:53:40.136Z,91.20
2019-02-25T22:56:13.420Z,91.50
2019-02-25T22:58:43.471Z,91.60
2019-02-25T23:01:18.058Z,91.90
2019-02-25T23:03:52.159Z,91.50
2019-02-25T23:06:23.022Z,91.50
2019-02-25T23:08:55.263Z,91.00
2019-02-25T23:11:26.930Z,90.30
2019-02-25T23:13:57.726Z,89.30
2019-02-25T23:16:28.590Z,89.70
2019-02-25T23:18:59.366Z,89.00
2019-02-25T23:21:31.359Z,90.30
2019-02-25T23:24:04.760Z,91.70
2019-02-25T23:26:35.545Z,92.40
2019-02-25T23:29:06.400Z,92.00
2019-02-25T23:31:37.270Z,92.00
2019-02-25T23:34:10.266Z,90.90
2019-02-25T23:36:43.053Z,91.20
2019-02-25T23:39:17.099Z,91.30
2019-02-25T23:41:46.316Z,91.90
2019-02-25T23:44:19.758Z,91.70
2019-02-25T23:46:55.402Z,91.70
2019-02-25T23:49:27.359Z,90.90
2019-02-25T23:51:55.663Z,90.30
2019-02-25T23:54:28.076Z,89.90
2019-02-25T23:57:00.149Z,90.00
2019-02-25T23:59:31.436Z,88.90
